sensor_id;sensor_type;location;lat;lon;timestamp;P1;durP1;ratioP1;P2;durP2;ratioP2
17251;SDS011;8742;51.716;8.790;2022-12-20T00:01:20;2.40;;;1.77;;
17251;SDS011;8742;51.716;8.790;2022-12-20T00:03:48;3.50;;;1.93;;
17251;SDS011;8742;51.716;8.790;2022-12-20T00:06:16;3.70;;;2.13;;
17251;SDS011;8742;51.716;8.790;2022-12-20T00:08:43;4.43;;;2.10;;
17251;SDS011;8742;51.716;8.790;2022-12-20T00:11:11;3.40;;;2.20;;
17251;SDS011;8742;51.716;8.790;2022-12-20T00:13:39;4.37;;;2.07;;
17251;SDS011;8742;51.716;8.790;2022-12-20T00:16:07;6.67;;;2.10;;
17251;SDS011;8742;51.716;8.790;2022-12-20T00:18:35;2.53;;;1.93;;
17251;SDS011;8742;51.716;8.790;2022-12-20T00:21:04;2.90;;;1.80;;
17251;SDS011;8742;51.716;8.790;2022-12-20T00:23:32;5.23;;;2.60;;
17251;SDS011;8742;51.716;8.790;2022-12-20T00:26:00;5.00;;;2.20;;
17251;SDS011;8742;51.716;8.790;2022-12-20T00:28:30;2.73;;;2.30;;
17251;SDS011;8742;51.716;8.790;2022-12-20T00:30:57;2.60;;;2.00;;
17251;SDS011;8742;51.716;8.790;2022-12-20T00:33:24;4.40;;;2.43;;
17251;SDS011;8742;51.716;8.790;2022-12-20T00:35:51;4.00;;;2.03;;
17251;SDS011;8742;51.716;8.790;2022-12-20T00:38:19;4.93;;;2.40;;
17251;SDS011;8742;51.716;8.790;2022-12-20T00:40:46;3.53;;;2.30;;
17251;SDS011;8742;51.716;8.790;2022-12-20T00:43:13;4.67;;;2.07;;
17251;SDS011;8742;51.716;8.790;2022-12-20T00:45:41;6.43;;;2.17;;
17251;SDS011;8742;51.716;8.790;2022-12-20T00:48:08;3.53;;;2.10;;
17251;SDS011;8742;51.716;8.790;2022-12-20T00:50:35;2.77;;;2.13;;
17251;SDS011;8742;51.716;8.790;2022-12-20T00:53:01;3.43;;;1.73;;
17251;SDS011;8742;51.716;8.790;2022-12-20T00:55:28;2.03;;;1.87;;
17251;SDS011;8742;51.716;8.790;2022-12-20T00:57:55;2.50;;;1.67;;
17251;SDS011;8742;51.716;8.790;2022-12-20T01:00:22;3.83;;;1.93;;
17251;SDS011;8742;51.716;8.790;2022-12-20T01:02:50;4.03;;;2.20;;
17251;SDS011;8742;51.716;8.790;2022-12-20T01:05:17;2.43;;;1.73;;
17251;SDS011;8742;51.716;8.790;2022-12-20T01:07:44;2.50;;;1.87;;
17251;SDS011;8742;51.716;8.790;2022-12-20T01:10:10;1.87;;;1.73;;
17251;SDS011;8742;51.716;8.790;2022-12-20T01:12:37;2.30;;;1.67;;
17251;SDS011;8742;51.716;8.790;2022-12-20T01:15:04;3.23;;;1.97;;
17251;SDS011;8742;51.716;8.790;2022-12-20T01:17:32;5.00;;;1.80;;
17251;SDS011;8742;51.716;8.790;2022-12-20T01:20:00;1.73;;;1.40;;
17251;SDS011;8742;51.716;8.790;2022-12-20T01:22:27;4.33;;;2.17;;
17251;SDS011;8742;51.716;8.790;2022-12-20T01:24:54;2.80;;;1.80;;
17251;SDS011;8742;51.716;8.790;2022-12-20T01:27:21;2.80;;;1.90;;
17251;SDS011;8742;51.716;8.790;2022-12-20T01:29:48;2.70;;;1.73;;
17251;SDS011;8742;51.716;8.790;2022-12-20T01:32:15;3.60;;;1.70;;
17251;SDS011;8742;51.716;8.790;2022-12-20T01:34:41;3.57;;;1.87;;
17251;SDS011;8742;51.716;8.790;2022-12-20T01:37:10;2.70;;;1.70;;
17251;SDS011;8742;51.716;8.790;2022-12-20T01:39:59;1.73;;;1.63;;
17251;SDS011;8742;51.716;8.790;2022-12-20T01:42:25;2.47;;;1.83;;
17251;SDS011;8742;51.716;8.790;2022-12-20T01:44:56;1.70;;;1.60;;
17251;SDS011;8742;51.716;8.790;2022-12-20T01:47:25;3.27;;;2.00;;
17251;SDS011;8742;51.716;8.790;2022-12-20T01:49:56;6.07;;;2.07;;
17251;SDS011;8742;51.716;8.790;2022-12-20T01:52:27;2.73;;;1.90;;
17251;SDS011;8742;51.716;8.790;2022-12-20T01:55:00;2.37;;;1.70;;
17251;SDS011;8742;51.716;8.790;2022-12-20T01:57:46;3.47;;;1.90;;
17251;SDS011;8742;51.716;8.790;2022-12-20T02:00:17;6.43;;;1.90;;
17251;SDS011;8742;51.716;8.790;2022-12-20T02:02:44;3.47;;;1.93;;
17251;SDS011;8742;51.716;8.790;2022-12-20T02:05:13;3.53;;;2.30;;
17251;SDS011;8742;51.716;8.790;2022-12-20T02:07:42;2.70;;;2.40;;
17251;SDS011;8742;51.716;8.790;2022-12-20T02:10:11;2.53;;;2.33;;
17251;SDS011;8742;51.716;8.790;2022-12-20T02:12:39;4.07;;;2.83;;
17251;SDS011;8742;51.716;8.790;2022-12-20T02:15:11;2.97;;;2.33;;
17251;SDS011;8742;51.716;8.790;2022-12-20T02:17:49;2.93;;;2.50;;
17251;SDS011;8742;51.716;8.790;2022-12-20T02:23:26;2.93;;;2.40;;
17251;SDS011;8742;51.716;8.790;2022-12-20T02:26:14;3.17;;;2.13;;
17251;SDS011;8742;51.716;8.790;2022-12-20T02:29:07;3.63;;;2.20;;
17251;SDS011;8742;51.716;8.790;2022-12-20T02:31:48;2.07;;;1.83;;
17251;SDS011;8742;51.716;8.790;2022-12-20T02:34:22;2.50;;;2.10;;
17251;SDS011;8742;51.716;8.790;2022-12-20T02:36:51;2.70;;;2.00;;
17251;SDS011;8742;51.716;8.790;2022-12-20T02:39:18;3.20;;;2.40;;
17251;SDS011;8742;51.716;8.790;2022-12-20T02:41:47;3.80;;;1.73;;
17251;SDS011;8742;51.716;8.790;2022-12-20T02:44:17;3.03;;;2.17;;
17251;SDS011;8742;51.716;8.790;2022-12-20T02:47:06;4.33;;;1.93;;
17251;SDS011;8742;51.716;8.790;2022-12-20T02:49:37;1.70;;;1.60;;
17251;SDS011;8742;51.716;8.790;2022-12-20T02:52:06;2.20;;;1.73;;
17251;SDS011;8742;51.716;8.790;2022-12-20T02:54:34;2.77;;;1.87;;
17251;SDS011;8742;51.716;8.790;2022-12-20T02:57:04;3.37;;;2.10;;
17251;SDS011;8742;51.716;8.790;2022-12-20T02:59:36;7.03;;;4.07;;
17251;SDS011;8742;51.716;8.790;2022-12-20T03:02:09;7.70;;;4.50;;
17251;SDS011;8742;51.716;8.790;2022-12-20T03:04:38;7.43;;;4.60;;
17251;SDS011;8742;51.716;8.790;2022-12-20T03:07:06;7.87;;;4.77;;
17251;SDS011;8742;51.716;8.790;2022-12-20T03:09:36;7.33;;;3.67;;
17251;SDS011;8742;51.716;8.790;2022-12-20T03:12:05;7.40;;;4.77;;
17251;SDS011;8742;51.716;8.790;2022-12-20T03:14:32;8.47;;;4.37;;
17251;SDS011;8742;51.716;8.790;2022-12-20T03:16:59;6.03;;;4.67;;
17251;SDS011;8742;51.716;8.790;2022-12-20T03:19:28;10.03;;;5.17;;
17251;SDS011;8742;51.716;8.790;2022-12-20T03:21:55;11.87;;;6.60;;
17251;SDS011;8742;51.716;8.790;2022-12-20T03:24:22;10.60;;;6.60;;
17251;SDS011;8742;51.716;8.790;2022-12-20T03:26:48;8.37;;;6.07;;
17251;SDS011;8742;51.716;8.790;2022-12-20T03:29:15;13.13;;;6.70;;
17251;SDS011;8742;51.716;8.790;2022-12-20T03:31:42;14.53;;;7.27;;
17251;SDS011;8742;51.716;8.790;2022-12-20T03:34:09;10.77;;;7.03;;
17251;SDS011;8742;51.716;8.790;2022-12-20T03:36:37;14.63;;;7.67;;
17251;SDS011;8742;51.716;8.790;2022-12-20T03:39:04;14.13;;;7.17;;
17251;SDS011;8742;51.716;8.790;2022-12-20T03:41:31;10.57;;;6.37;;
17251;SDS011;8742;51.716;8.790;2022-12-20T03:43:58;10.83;;;6.33;;
17251;SDS011;8742;51.716;8.790;2022-12-20T03:46:25;12.43;;;6.03;;
17251;SDS011;8742;51.716;8.790;2022-12-20T03:48:51;12.60;;;5.93;;
17251;SDS011;8742;51.716;8.790;2022-12-20T03:51:18;10.47;;;5.83;;
17251;SDS011;8742;51.716;8.790;2022-12-20T03:53:47;10.10;;;5.70;;
17251;SDS011;8742;51.716;8.790;2022-12-20T03:56:13;10.53;;;6.80;;
17251;SDS011;8742;51.716;8.790;2022-12-20T03:58:40;9.30;;;5.77;;
17251;SDS011;8742;51.716;8.790;2022-12-20T04:01:17;9.50;;;6.10;;
17251;SDS011;8742;51.716;8.790;2022-12-20T04:03:46;10.03;;;6.37;;
17251;SDS011;8742;51.716;8.790;2022-12-20T04:06:13;9.03;;;5.60;;
17251;SDS011;8742;51.716;8.790;2022-12-20T04:08:40;12.40;;;6.17;;
17251;SDS011;8742;51.716;8.790;2022-12-20T04:11:09;10.90;;;6.30;;
17251;SDS011;8742;51.716;8.790;2022-12-20T04:13:41;9.50;;;5.80;;
17251;SDS011;8742;51.716;8.790;2022-12-20T04:16:09;9.70;;;5.57;;
17251;SDS011;8742;51.716;8.790;2022-12-20T04:18:36;8.10;;;5.70;;
17251;SDS011;8742;51.716;8.790;2022-12-20T04:21:03;9.17;;;5.97;;
17251;SDS011;8742;51.716;8.790;2022-12-20T04:23:31;8.30;;;5.67;;
17251;SDS011;8742;51.716;8.790;2022-12-20T04:25:58;9.07;;;5.57;;
17251;SDS011;8742;51.716;8.790;2022-12-20T04:28:26;12.40;;;6.03;;
17251;SDS011;8742;51.716;8.790;2022-12-20T04:30:54;12.80;;;6.67;;
17251;SDS011;8742;51.716;8.790;2022-12-20T04:33:21;8.93;;;6.07;;
17251;SDS011;8742;51.716;8.790;2022-12-20T04:35:48;10.27;;;5.87;;
17251;SDS011;8742;51.716;8.790;2022-12-20T04:38:16;10.33;;;5.43;;
17251;SDS011;8742;51.716;8.790;2022-12-20T04:40:43;13.37;;;6.50;;
17251;SDS011;8742;51.716;8.790;2022-12-20T04:43:10;11.83;;;6.90;;
17251;SDS011;8742;51.716;8.790;2022-12-20T04:45:38;13.10;;;6.63;;
17251;SDS011;8742;51.716;8.790;2022-12-20T04:48:05;12.63;;;6.30;;
17251;SDS011;8742;51.716;8.790;2022-12-20T04:50:31;9.30;;;5.97;;
17251;SDS011;8742;51.716;8.790;2022-12-20T04:52:58;9.17;;;6.13;;
17251;SDS011;8742;51.716;8.790;2022-12-20T04:55:43;11.47;;;6.23;;
17251;SDS011;8742;51.716;8.790;2022-12-20T04:58:10;10.60;;;5.97;;
17251;SDS011;8742;51.716;8.790;2022-12-20T05:00:38;12.53;;;7.50;;
17251;SDS011;8742;51.716;8.790;2022-12-20T05:03:05;12.57;;;6.90;;
17251;SDS011;8742;51.716;8.790;2022-12-20T05:05:31;12.30;;;6.93;;
17251;SDS011;8742;51.716;8.790;2022-12-20T05:07:58;13.10;;;7.50;;
17251;SDS011;8742;51.716;8.790;2022-12-20T05:10:25;12.77;;;7.43;;
17251;SDS011;8742;51.716;8.790;2022-12-20T05:12:52;10.93;;;7.43;;
17251;SDS011;8742;51.716;8.790;2022-12-20T05:15:19;12.40;;;7.60;;
17251;SDS011;8742;51.716;8.790;2022-12-20T05:17:47;13.00;;;7.63;;
17251;SDS011;8742;51.716;8.790;2022-12-20T05:20:14;17.63;;;7.87;;
17251;SDS011;8742;51.716;8.790;2022-12-20T05:22:41;17.87;;;8.33;;
17251;SDS011;8742;51.716;8.790;2022-12-20T05:25:25;15.37;;;8.63;;
17251;SDS011;8742;51.716;8.790;2022-12-20T05:28:10;17.57;;;9.00;;
17251;SDS011;8742;51.716;8.790;2022-12-20T05:30:37;14.83;;;8.70;;
17251;SDS011;8742;51.716;8.790;2022-12-20T05:33:05;14.03;;;8.30;;
17251;SDS011;8742;51.716;8.790;2022-12-20T05:35:31;17.30;;;8.90;;
17251;SDS011;8742;51.716;8.790;2022-12-20T05:37:59;19.60;;;9.53;;
17251;SDS011;8742;51.716;8.790;2022-12-20T05:40:26;21.70;;;10.53;;
17251;SDS011;8742;51.716;8.790;2022-12-20T05:42:53;18.33;;;9.73;;
17251;SDS011;8742;51.716;8.790;2022-12-20T05:45:20;18.17;;;10.10;;
17251;SDS011;8742;51.716;8.790;2022-12-20T05:47:47;16.80;;;10.40;;
17251;SDS011;8742;51.716;8.790;2022-12-20T05:50:15;22.83;;;10.90;;
17251;SDS011;8742;51.716;8.790;2022-12-20T05:52:42;23.03;;;11.27;;
17251;SDS011;8742;51.716;8.790;2022-12-20T05:55:09;22.60;;;11.50;;
17251;SDS011;8742;51.716;8.790;2022-12-20T05:57:36;24.30;;;12.03;;
17251;SDS011;8742;51.716;8.790;2022-12-20T06:00:03;20.43;;;11.17;;
17251;SDS011;8742;51.716;8.790;2022-12-20T06:02:30;24.87;;;11.93;;
17251;SDS011;8742;51.716;8.790;2022-12-20T06:04:57;22.03;;;12.27;;
17251;SDS011;8742;51.716;8.790;2022-12-20T06:07:26;18.87;;;11.40;;
17251;SDS011;8742;51.716;8.790;2022-12-20T06:09:53;25.97;;;12.17;;
17251;SDS011;8742;51.716;8.790;2022-12-20T06:12:20;25.23;;;12.23;;
17251;SDS011;8742;51.716;8.790;2022-12-20T06:14:47;28.33;;;13.20;;
17251;SDS011;8742;51.716;8.790;2022-12-20T06:17:14;25.37;;;12.87;;
17251;SDS011;8742;51.716;8.790;2022-12-20T06:19:41;23.23;;;12.33;;
17251;SDS011;8742;51.716;8.790;2022-12-20T06:22:08;20.40;;;11.40;;
17251;SDS011;8742;51.716;8.790;2022-12-20T06:24:36;28.83;;;12.50;;
17251;SDS011;8742;51.716;8.790;2022-12-20T06:27:03;24.57;;;11.60;;
17251;SDS011;8742;51.716;8.790;2022-12-20T06:29:31;22.50;;;11.67;;
17251;SDS011;8742;51.716;8.790;2022-12-20T06:31:57;26.77;;;12.70;;
17251;SDS011;8742;51.716;8.790;2022-12-20T06:34:24;25.20;;;13.00;;
17251;SDS011;8742;51.716;8.790;2022-12-20T06:36:51;20.20;;;12.33;;
17251;SDS011;8742;51.716;8.790;2022-12-20T06:39:18;17.40;;;10.87;;
17251;SDS011;8742;51.716;8.790;2022-12-20T06:41:46;21.93;;;11.70;;
17251;SDS011;8742;51.716;8.790;2022-12-20T06:44:13;23.63;;;12.67;;
17251;SDS011;8742;51.716;8.790;2022-12-20T06:46:40;22.77;;;12.30;;
17251;SDS011;8742;51.716;8.790;2022-12-20T06:49:06;18.63;;;11.67;;
17251;SDS011;8742;51.716;8.790;2022-12-20T06:51:33;20.77;;;11.37;;
17251;SDS011;8742;51.716;8.790;2022-12-20T06:54:00;20.47;;;10.27;;
17251;SDS011;8742;51.716;8.790;2022-12-20T06:56:27;21.47;;;11.13;;
17251;SDS011;8742;51.716;8.790;2022-12-20T06:58:55;23.50;;;11.20;;
17251;SDS011;8742;51.716;8.790;2022-12-20T07:01:22;18.30;;;10.20;;
17251;SDS011;8742;51.716;8.790;2022-12-20T07:03:49;19.83;;;10.27;;
17251;SDS011;8742;51.716;8.790;2022-12-20T07:06:16;20.60;;;11.33;;
17251;SDS011;8742;51.716;8.790;2022-12-20T07:08:42;25.20;;;10.77;;
17251;SDS011;8742;51.716;8.790;2022-12-20T07:11:09;16.87;;;10.63;;
17251;SDS011;8742;51.716;8.790;2022-12-20T07:13:36;18.93;;;10.57;;
17251;SDS011;8742;51.716;8.790;2022-12-20T07:16:05;20.13;;;10.70;;
17251;SDS011;8742;51.716;8.790;2022-12-20T07:18:32;21.87;;;10.40;;
17251;SDS011;8742;51.716;8.790;2022-12-20T07:21:00;16.80;;;9.97;;
17251;SDS011;8742;51.716;8.790;2022-12-20T07:23:28;18.33;;;9.17;;
17251;SDS011;8742;51.716;8.790;2022-12-20T07:25:55;19.73;;;8.97;;
17251;SDS011;8742;51.716;8.790;2022-12-20T07:28:24;17.07;;;9.47;;
17251;SDS011;8742;51.716;8.790;2022-12-20T07:30:51;19.10;;;9.47;;
17251;SDS011;8742;51.716;8.790;2022-12-20T07:33:20;17.20;;;8.90;;
17251;SDS011;8742;51.716;8.790;2022-12-20T07:35:47;17.17;;;7.67;;
17251;SDS011;8742;51.716;8.790;2022-12-20T07:38:14;15.67;;;8.47;;
17251;SDS011;8742;51.716;8.790;2022-12-20T07:40:41;16.43;;;8.37;;
17251;SDS011;8742;51.716;8.790;2022-12-20T07:43:08;15.93;;;7.90;;
17251;SDS011;8742;51.716;8.790;2022-12-20T07:45:35;13.43;;;8.17;;
17251;SDS011;8742;51.716;8.790;2022-12-20T07:48:02;14.43;;;8.13;;
17251;SDS011;8742;51.716;8.790;2022-12-20T07:50:31;14.40;;;7.63;;
17251;SDS011;8742;51.716;8.790;2022-12-20T07:53:00;13.80;;;7.93;;
17251;SDS011;8742;51.716;8.790;2022-12-20T07:55:29;16.17;;;8.10;;
17251;SDS011;8742;51.716;8.790;2022-12-20T07:57:58;14.77;;;7.33;;
17251;SDS011;8742;51.716;8.790;2022-12-20T08:02:59;12.60;;;7.13;;
17251;SDS011;8742;51.716;8.790;2022-12-20T08:05:30;13.23;;;7.80;;
17251;SDS011;8742;51.716;8.790;2022-12-20T08:07:58;13.27;;;7.00;;
17251;SDS011;8742;51.716;8.790;2022-12-20T08:10:28;12.23;;;7.80;;
17251;SDS011;8742;51.716;8.790;2022-12-20T08:12:56;14.43;;;7.87;;
17251;SDS011;8742;51.716;8.790;2022-12-20T08:15:24;13.07;;;7.97;;
17251;SDS011;8742;51.716;8.790;2022-12-20T08:17:53;13.13;;;8.00;;
17251;SDS011;8742;51.716;8.790;2022-12-20T08:20:19;26.13;;;8.20;;
17251;SDS011;8742;51.716;8.790;2022-12-20T08:22:48;14.53;;;8.40;;
17251;SDS011;8742;51.716;8.790;2022-12-20T08:25:15;11.50;;;7.40;;
17251;SDS011;8742;51.716;8.790;2022-12-20T08:27:42;14.70;;;8.37;;
17251;SDS011;8742;51.716;8.790;2022-12-20T08:30:09;11.13;;;7.20;;
17251;SDS011;8742;51.716;8.790;2022-12-20T08:32:36;14.70;;;7.90;;
17251;SDS011;8742;51.716;8.790;2022-12-20T08:35:04;11.60;;;7.43;;
17251;SDS011;8742;51.716;8.790;2022-12-20T08:37:32;16.90;;;8.10;;
17251;SDS011;8742;51.716;8.790;2022-12-20T08:40:00;12.80;;;7.53;;
17251;SDS011;8742;51.716;8.790;2022-12-20T08:42:27;11.73;;;7.13;;
17251;SDS011;8742;51.716;8.790;2022-12-20T08:44:54;13.63;;;7.87;;
17251;SDS011;8742;51.716;8.790;2022-12-20T08:47:21;15.90;;;8.13;;
17251;SDS011;8742;51.716;8.790;2022-12-20T08:49:48;12.63;;;7.70;;
17251;SDS011;8742;51.716;8.790;2022-12-20T08:52:14;13.20;;;7.57;;
17251;SDS011;8742;51.716;8.790;2022-12-20T08:54:41;12.70;;;6.83;;
17251;SDS011;8742;51.716;8.790;2022-12-20T08:57:09;13.93;;;7.37;;
17251;SDS011;8742;51.716;8.790;2022-12-20T08:59:36;12.97;;;7.63;;
17251;SDS011;8742;51.716;8.790;2022-12-20T09:02:03;14.93;;;8.40;;
17251;SDS011;8742;51.716;8.790;2022-12-20T09:04:30;10.67;;;6.70;;
17251;SDS011;8742;51.716;8.790;2022-12-20T09:06:57;10.80;;;7.73;;
17251;SDS011;8742;51.716;8.790;2022-12-20T09:09:24;16.53;;;8.43;;
17251;SDS011;8742;51.716;8.790;2022-12-20T09:11:51;18.53;;;7.57;;
17251;SDS011;8742;51.716;8.790;2022-12-20T09:14:19;14.07;;;8.70;;
17251;SDS011;8742;51.716;8.790;2022-12-20T09:16:46;13.37;;;7.33;;
17251;SDS011;8742;51.716;8.790;2022-12-20T09:19:13;17.67;;;9.50;;
17251;SDS011;8742;51.716;8.790;2022-12-20T09:21:40;19.10;;;9.10;;
17251;SDS011;8742;51.716;8.790;2022-12-20T09:24:12;13.87;;;9.13;;
17251;SDS011;8742;51.716;8.790;2022-12-20T09:26:39;13.17;;;8.23;;
17251;SDS011;8742;51.716;8.790;2022-12-20T09:29:08;17.13;;;8.63;;
17251;SDS011;8742;51.716;8.790;2022-12-20T09:31:36;16.50;;;9.33;;
17251;SDS011;8742;51.716;8.790;2022-12-20T09:34:04;15.53;;;9.07;;
17251;SDS011;8742;51.716;8.790;2022-12-20T09:36:30;20.50;;;9.23;;
17251;SDS011;8742;51.716;8.790;2022-12-20T09:38:57;12.37;;;8.77;;
17251;SDS011;8742;51.716;8.790;2022-12-20T09:41:25;16.10;;;9.07;;
17251;SDS011;8742;51.716;8.790;2022-12-20T09:43:56;12.57;;;7.77;;
17251;SDS011;8742;51.716;8.790;2022-12-20T09:46:25;13.53;;;8.00;;
17251;SDS011;8742;51.716;8.790;2022-12-20T09:49:00;14.90;;;7.40;;
17251;SDS011;8742;51.716;8.790;2022-12-20T09:51:42;11.70;;;7.17;;
17251;SDS011;8742;51.716;8.790;2022-12-20T09:54:21;11.83;;;7.57;;
17251;SDS011;8742;51.716;8.790;2022-12-20T09:57:01;15.00;;;8.40;;
17251;SDS011;8742;51.716;8.790;2022-12-20T09:59:32;15.73;;;7.80;;
17251;SDS011;8742;51.716;8.790;2022-12-20T10:02:00;14.13;;;7.37;;
17251;SDS011;8742;51.716;8.790;2022-12-20T10:04:34;15.90;;;9.10;;
17251;SDS011;8742;51.716;8.790;2022-12-20T10:07:07;14.27;;;8.67;;
17251;SDS011;8742;51.716;8.790;2022-12-20T10:09:50;18.60;;;8.80;;
17251;SDS011;8742;51.716;8.790;2022-12-20T10:12:30;13.27;;;8.23;;
17251;SDS011;8742;51.716;8.790;2022-12-20T10:15:17;13.10;;;6.73;;
17251;SDS011;8742;51.716;8.790;2022-12-20T10:17:49;11.97;;;7.67;;
17251;SDS011;8742;51.716;8.790;2022-12-20T10:20:31;13.07;;;7.23;;
17251;SDS011;8742;51.716;8.790;2022-12-20T10:23:10;14.90;;;8.37;;
17251;SDS011;8742;51.716;8.790;2022-12-20T10:25:41;14.73;;;7.57;;
17251;SDS011;8742;51.716;8.790;2022-12-20T10:28:10;12.10;;;7.67;;
17251;SDS011;8742;51.716;8.790;2022-12-20T10:30:40;12.37;;;6.83;;
17251;SDS011;8742;51.716;8.790;2022-12-20T10:33:11;10.53;;;7.00;;
17251;SDS011;8742;51.716;8.790;2022-12-20T10:35:45;13.20;;;7.47;;
17251;SDS011;8742;51.716;8.790;2022-12-20T10:38:13;14.73;;;7.60;;
17251;SDS011;8742;51.716;8.790;2022-12-20T10:40:42;11.73;;;7.30;;
17251;SDS011;8742;51.716;8.790;2022-12-20T10:43:13;11.70;;;7.30;;
17251;SDS011;8742;51.716;8.790;2022-12-20T10:45:42;13.83;;;7.30;;
17251;SDS011;8742;51.716;8.790;2022-12-20T10:48:23;12.00;;;7.07;;
17251;SDS011;8742;51.716;8.790;2022-12-20T10:50:56;11.00;;;6.70;;
17251;SDS011;8742;51.716;8.790;2022-12-20T10:53:25;10.60;;;7.07;;
17251;SDS011;8742;51.716;8.790;2022-12-20T10:55:53;12.47;;;7.00;;
17251;SDS011;8742;51.716;8.790;2022-12-20T10:58:35;12.43;;;7.47;;
17251;SDS011;8742;51.716;8.790;2022-12-20T11:01:04;13.47;;;7.00;;
17251;SDS011;8742;51.716;8.790;2022-12-20T11:03:41;8.10;;;5.23;;
17251;SDS011;8742;51.716;8.790;2022-12-20T11:06:17;11.77;;;6.40;;
17251;SDS011;8742;51.716;8.790;2022-12-20T11:08:46;11.07;;;6.20;;
17251;SDS011;8742;51.716;8.790;2022-12-20T11:11:14;10.50;;;6.50;;
17251;SDS011;8742;51.716;8.790;2022-12-20T11:13:44;11.10;;;6.43;;
17251;SDS011;8742;51.716;8.790;2022-12-20T11:16:25;10.90;;;6.27;;
17251;SDS011;8742;51.716;8.790;2022-12-20T11:19:12;9.87;;;5.73;;
17251;SDS011;8742;51.716;8.790;2022-12-20T11:22:23;10.10;;;6.10;;
17251;SDS011;8742;51.716;8.790;2022-12-20T11:24:59;11.70;;;6.13;;
17251;SDS011;8742;51.716;8.790;2022-12-20T11:27:38;11.30;;;6.30;;
17251;SDS011;8742;51.716;8.790;2022-12-20T11:30:14;8.20;;;5.63;;
17251;SDS011;8742;51.716;8.790;2022-12-20T11:33:06;8.70;;;5.83;;
17251;SDS011;8742;51.716;8.790;2022-12-20T11:35:49;11.17;;;6.30;;
17251;SDS011;8742;51.716;8.790;2022-12-20T11:38:25;7.73;;;5.37;;
17251;SDS011;8742;51.716;8.790;2022-12-20T11:41:04;15.07;;;5.70;;
17251;SDS011;8742;51.716;8.790;2022-12-20T11:43:41;12.93;;;5.83;;
17251;SDS011;8742;51.716;8.790;2022-12-20T11:46:22;9.77;;;5.53;;
17251;SDS011;8742;51.716;8.790;2022-12-20T11:49:05;10.60;;;5.33;;
17251;SDS011;8742;51.716;8.790;2022-12-20T11:51:47;7.30;;;4.77;;
17251;SDS011;8742;51.716;8.790;2022-12-20T11:54:22;9.13;;;5.00;;
17251;SDS011;8742;51.716;8.790;2022-12-20T11:56:53;8.17;;;5.43;;
17251;SDS011;8742;51.716;8.790;2022-12-20T11:59:29;7.47;;;5.17;;
17251;SDS011;8742;51.716;8.790;2022-12-20T12:01:59;8.30;;;5.07;;
17251;SDS011;8742;51.716;8.790;2022-12-20T12:04:31;8.97;;;5.23;;
17251;SDS011;8742;51.716;8.790;2022-12-20T12:07:02;11.00;;;6.00;;
17251;SDS011;8742;51.716;8.790;2022-12-20T12:09:35;9.70;;;5.03;;
17251;SDS011;8742;51.716;8.790;2022-12-20T12:12:07;9.63;;;4.90;;
17251;SDS011;8742;51.716;8.790;2022-12-20T12:14:44;6.97;;;5.13;;
17251;SDS011;8742;51.716;8.790;2022-12-20T12:17:20;8.50;;;4.80;;
17251;SDS011;8742;51.716;8.790;2022-12-20T12:19:51;8.60;;;5.37;;
17251;SDS011;8742;51.716;8.790;2022-12-20T12:22:23;9.27;;;4.77;;
17251;SDS011;8742;51.716;8.790;2022-12-20T12:24:57;9.10;;;4.90;;
17251;SDS011;8742;51.716;8.790;2022-12-20T12:27:26;8.40;;;5.20;;
17251;SDS011;8742;51.716;8.790;2022-12-20T12:29:54;7.33;;;5.13;;
17251;SDS011;8742;51.716;8.790;2022-12-20T12:32:24;8.93;;;5.70;;
17251;SDS011;8742;51.716;8.790;2022-12-20T12:35:03;7.23;;;4.50;;
17251;SDS011;8742;51.716;8.790;2022-12-20T12:37:45;8.73;;;4.43;;
17251;SDS011;8742;51.716;8.790;2022-12-20T12:40:26;5.37;;;4.17;;
17251;SDS011;8742;51.716;8.790;2022-12-20T12:43:13;6.57;;;4.57;;
17251;SDS011;8742;51.716;8.790;2022-12-20T12:46:07;5.77;;;4.43;;
17251;SDS011;8742;51.716;8.790;2022-12-20T12:48:38;8.47;;;4.87;;
17251;SDS011;8742;51.716;8.790;2022-12-20T12:51:07;10.43;;;5.40;;
17251;SDS011;8742;51.716;8.790;2022-12-20T12:53:36;11.17;;;4.70;;
17251;SDS011;8742;51.716;8.790;2022-12-20T12:59:09;5.93;;;4.87;;
17251;SDS011;8742;51.716;8.790;2022-12-20T13:01:50;9.93;;;4.90;;
17251;SDS011;8742;51.716;8.790;2022-12-20T13:04:23;6.73;;;4.90;;
17251;SDS011;8742;51.716;8.790;2022-12-20T13:06:55;9.13;;;4.80;;
17251;SDS011;8742;51.716;8.790;2022-12-20T13:09:39;12.57;;;5.23;;
17251;SDS011;8742;51.716;8.790;2022-12-20T13:18:24;8.87;;;4.83;;
17251;SDS011;8742;51.716;8.790;2022-12-20T13:35:54;7.50;;;4.97;;
17251;SDS011;8742;51.716;8.790;2022-12-20T13:41:20;7.87;;;4.33;;
17251;SDS011;8742;51.716;8.790;2022-12-20T13:43:56;7.73;;;4.47;;
17251;SDS011;8742;51.716;8.790;2022-12-20T13:46:26;8.63;;;5.10;;
17251;SDS011;8742;51.716;8.790;2022-12-20T13:49:04;10.07;;;4.97;;
17251;SDS011;8742;51.716;8.790;2022-12-20T13:51:36;5.57;;;3.90;;
17251;SDS011;8742;51.716;8.790;2022-12-20T13:54:04;5.80;;;3.43;;
17251;SDS011;8742;51.716;8.790;2022-12-20T13:56:34;6.73;;;3.50;;
17251;SDS011;8742;51.716;8.790;2022-12-20T13:59:13;5.10;;;3.17;;
17251;SDS011;8742;51.716;8.790;2022-12-20T14:01:46;6.50;;;3.97;;
17251;SDS011;8742;51.716;8.790;2022-12-20T14:04:15;11.17;;;4.17;;
17251;SDS011;8742;51.716;8.790;2022-12-20T14:06:43;4.67;;;3.37;;
17251;SDS011;8742;51.716;8.790;2022-12-20T14:09:25;6.67;;;3.90;;
17251;SDS011;8742;51.716;8.790;2022-12-20T14:11:54;10.80;;;4.20;;
17251;SDS011;8742;51.716;8.790;2022-12-20T14:14:27;7.13;;;2.93;;
17251;SDS011;8742;51.716;8.790;2022-12-20T14:16:54;4.73;;;2.90;;
17251;SDS011;8742;51.716;8.790;2022-12-20T14:19:22;4.63;;;2.70;;
17251;SDS011;8742;51.716;8.790;2022-12-20T14:21:49;3.87;;;2.93;;
17251;SDS011;8742;51.716;8.790;2022-12-20T14:24:16;5.13;;;2.90;;
17251;SDS011;8742;51.716;8.790;2022-12-20T14:26:45;2.37;;;1.80;;
17251;SDS011;8742;51.716;8.790;2022-12-20T14:29:17;4.57;;;1.90;;
17251;SDS011;8742;51.716;8.790;2022-12-20T14:31:47;3.23;;;1.80;;
17251;SDS011;8742;51.716;8.790;2022-12-20T14:34:15;2.93;;;1.80;;
17251;SDS011;8742;51.716;8.790;2022-12-20T14:36:49;2.73;;;2.00;;
17251;SDS011;8742;51.716;8.790;2022-12-20T14:39:23;2.10;;;1.60;;
17251;SDS011;8742;51.716;8.790;2022-12-20T14:41:54;2.67;;;1.70;;
17251;SDS011;8742;51.716;8.790;2022-12-20T14:44:23;4.27;;;2.40;;
17251;SDS011;8742;51.716;8.790;2022-12-20T14:46:52;1.97;;;1.80;;
17251;SDS011;8742;51.716;8.790;2022-12-20T14:49:21;3.63;;;2.00;;
17251;SDS011;8742;51.716;8.790;2022-12-20T14:51:54;7.57;;;2.20;;
17251;SDS011;8742;51.716;8.790;2022-12-20T14:54:31;3.07;;;2.10;;
17251;SDS011;8742;51.716;8.790;2022-12-20T14:57:00;6.53;;;2.60;;
17251;SDS011;8742;51.716;8.790;2022-12-20T14:59:27;1.97;;;1.50;;
17251;SDS011;8742;51.716;8.790;2022-12-20T15:01:55;6.97;;;3.13;;
17251;SDS011;8742;51.716;8.790;2022-12-20T15:04:24;3.93;;;2.23;;
17251;SDS011;8742;51.716;8.790;2022-12-20T15:06:57;6.50;;;2.73;;
17251;SDS011;8742;51.716;8.790;2022-12-20T15:09:25;4.80;;;1.80;;
17251;SDS011;8742;51.716;8.790;2022-12-20T15:11:52;4.77;;;1.60;;
17251;SDS011;8742;51.716;8.790;2022-12-20T15:14:26;5.53;;;2.10;;
17251;SDS011;8742;51.716;8.790;2022-12-20T15:16:59;7.33;;;2.23;;
17251;SDS011;8742;51.716;8.790;2022-12-20T15:19:26;2.80;;;2.10;;
17251;SDS011;8742;51.716;8.790;2022-12-20T15:21:55;3.37;;;2.40;;
17251;SDS011;8742;51.716;8.790;2022-12-20T15:24:24;3.50;;;2.63;;
17251;SDS011;8742;51.716;8.790;2022-12-20T15:26:52;7.03;;;2.20;;
17251;SDS011;8742;51.716;8.790;2022-12-20T15:29:20;5.67;;;2.30;;
17251;SDS011;8742;51.716;8.790;2022-12-20T15:31:49;2.77;;;1.87;;
17251;SDS011;8742;51.716;8.790;2022-12-20T15:34:17;4.87;;;1.43;;
17251;SDS011;8742;51.716;8.790;2022-12-20T15:36:49;4.97;;;1.73;;
17251;SDS011;8742;51.716;8.790;2022-12-20T15:39:16;2.83;;;1.93;;
17251;SDS011;8742;51.716;8.790;2022-12-20T15:41:46;3.40;;;2.23;;
17251;SDS011;8742;51.716;8.790;2022-12-20T15:44:16;4.77;;;1.97;;